sensor_id;sensor_type;location;lat;lon;timestamp;temperature;humidity
21267;DHT22;10791;53.108;18.326;2023-06-24T00:03:41;18.60;99.90
21267;DHT22;10791;53.108;18.326;2023-06-24T00:08:49;18.70;99.90
21267;DHT22;10791;53.108;18.326;2023-06-24T00:13:53;18.60;99.90
21267;DHT22;10791;53.108;18.326;2023-06-24T00:18:56;18.70;99.90
21267;DHT22;10791;53.108;18.326;2023-06-24T00:24:03;18.70;99.90
21267;DHT22;10791;53.108;18.326;2023-06-24T00:29:09;18.70;99.90
21267;DHT22;10791;53.108;18.326;2023-06-24T00:34:12;18.80;99.90
21267;DHT22;10791;53.108;18.326;2023-06-24T00:39:17;18.70;99.90
21267;DHT22;10791;53.108;18.326;2023-06-24T00:44:20;18.70;99.90
21267;DHT22;10791;53.108;18.326;2023-06-24T00:49:23;18.60;99.90
21267;DHT22;10791;53.108;18.326;2023-06-24T00:54:27;18.60;99.90
21267;DHT22;10791;53.108;18.326;2023-06-24T00:59:34;18.50;99.90
21267;DHT22;10791;53.108;18.326;2023-06-24T01:04:42;18.40;99.90
21267;DHT22;10791;53.108;18.326;2023-06-24T01:09:46;18.40;99.90
21267;DHT22;10791;53.108;18.326;2023-06-24T01:14:50;18.40;99.90
21267;DHT22;10791;53.108;18.326;2023-06-24T01:20:02;18.40;99.90
21267;DHT22;10791;53.108;18.326;2023-06-24T01:36:11;18.20;99.90
21267;DHT22;10791;53.108;18.326;2023-06-24T01:41:21;18.20;99.90
21267;DHT22;10791;53.108;18.326;2023-06-24T01:46:25;18.10;99.90
21267;DHT22;10791;53.108;18.326;2023-06-24T01:51:32;18.10;99.90
21267;DHT22;10791;53.108;18.326;2023-06-24T01:56:39;18.10;99.90
21267;DHT22;10791;53.108;18.326;2023-06-24T02:01:45;18.10;99.90
21267;DHT22;10791;53.108;18.326;2023-06-24T02:06:50;18.00;99.90
21267;DHT22;10791;53.108;18.326;2023-06-24T02:11:58;18.00;99.90
21267;DHT22;10791;53.108;18.326;2023-06-24T02:17:04;18.00;99.90
21267;DHT22;10791;53.108;18.326;2023-06-24T02:22:08;17.90;99.90
21267;DHT22;10791;53.108;18.326;2023-06-24T02:27:13;17.90;99.90
21267;DHT22;10791;53.108;18.326;2023-06-24T02:32:16;17.80;99.90
21267;DHT22;10791;53.108;18.326;2023-06-24T02:37:19;17.70;99.90
21267;DHT22;10791;53.108;18.326;2023-06-24T02:42:23;17.50;99.90
21267;DHT22;10791;53.108;18.326;2023-06-24T02:47:27;17.40;99.90
21267;DHT22;10791;53.108;18.326;2023-06-24T02:52:31;17.40;99.90
21267;DHT22;10791;53.108;18.326;2023-06-24T02:57:35;17.40;99.90
21267;DHT22;10791;53.108;18.326;2023-06-24T03:02:40;17.40;99.90
21267;DHT22;10791;53.108;18.326;2023-06-24T03:07:44;17.30;99.90
21267;DHT22;10791;53.108;18.326;2023-06-24T03:12:48;17.40;99.90
21267;DHT22;10791;53.108;18.326;2023-06-24T03:17:52;17.40;99.90
21267;DHT22;10791;53.108;18.326;2023-06-24T03:22:55;17.40;99.90
21267;DHT22;10791;53.108;18.326;2023-06-24T03:27:59;17.40;99.90
21267;DHT22;10791;53.108;18.326;2023-06-24T03:33:06;17.40;99.90
21267;DHT22;10791;53.108;18.326;2023-06-24T03:38:10;17.40;99.90
21267;DHT22;10791;53.108;18.326;2023-06-24T03:43:14;17.40;99.90
21267;DHT22;10791;53.108;18.326;2023-06-24T03:48:18;17.40;99.90
21267;DHT22;10791;53.108;18.326;2023-06-24T03:53:21;17.40;99.90
21267;DHT22;10791;53.108;18.326;2023-06-24T03:58:24;17.30;99.90
21267;DHT22;10791;53.108;18.326;2023-06-24T04:03:28;17.40;99.90
21267;DHT22;10791;53.108;18.326;2023-06-24T04:08:32;17.40;99.90
21267;DHT22;10791;53.108;18.326;2023-06-24T04:13:35;17.40;99.90
21267;DHT22;10791;53.108;18.326;2023-06-24T04:18:38;17.30;99.90
21267;DHT22;10791;53.108;18.326;2023-06-24T04:23:42;17.30;99.90
21267;DHT22;10791;53.108;18.326;2023-06-24T04:28:46;17.20;99.90
21267;DHT22;10791;53.108;18.326;2023-06-24T04:33:49;17.30;99.90
21267;DHT22;10791;53.108;18.326;2023-06-24T04:38:52;17.40;99.90
21267;DHT22;10791;53.108;18.326;2023-06-24T04:43:55;17.50;99.90
21267;DHT22;10791;53.108;18.326;2023-06-24T04:48:58;17.60;99.90
21267;DHT22;10791;53.108;18.326;2023-06-24T04:54:01;17.60;99.90
21267;DHT22;10791;53.108;18.326;2023-06-24T04:59:05;17.70;99.90
21267;DHT22;10791;53.108;18.326;2023-06-24T05:04:08;17.70;99.90
21267;DHT22;10791;53.108;18.326;2023-06-24T05:09:12;17.70;99.90
21267;DHT22;10791;53.108;18.326;2023-06-24T05:14:17;17.80;99.90
21267;DHT22;10791;53.108;18.326;2023-06-24T05:19:20;17.90;99.90
21267;DHT22;10791;53.108;18.326;2023-06-24T05:24:24;18.00;99.90
21267;DHT22;10791;53.108;18.326;2023-06-24T05:29:27;18.20;99.90
21267;DHT22;10791;53.108;18.326;2023-06-24T05:34:31;18.30;99.90
21267;DHT22;10791;53.108;18.326;2023-06-24T05:39:34;18.70;99.90
21267;DHT22;10791;53.108;18.326;2023-06-24T05:44:37;19.10;99.90
21267;DHT22;10791;53.108;18.326;2023-06-24T05:49:40;19.30;99.90
21267;DHT22;10791;53.108;18.326;2023-06-24T05:54:43;19.50;99.90
21267;DHT22;10791;53.108;18.326;2023-06-24T05:59:47;19.70;99.90
21267;DHT22;10791;53.108;18.326;2023-06-24T06:04:50;19.90;99.90
21267;DHT22;10791;53.108;18.326;2023-06-24T06:09:57;20.10;99.90
21267;DHT22;10791;53.108;18.326;2023-06-24T06:15:01;20.20;99.90
21267;DHT22;10791;53.108;18.326;2023-06-24T06:20:05;20.30;99.90
21267;DHT22;10791;53.108;18.326;2023-06-24T06:25:08;20.50;99.90
21267;DHT22;10791;53.108;18.326;2023-06-24T06:30:12;20.90;99.90
21267;DHT22;10791;53.108;18.326;2023-06-24T06:35:16;21.20;99.90
21267;DHT22;10791;53.108;18.326;2023-06-24T06:40:20;21.30;99.90
21267;DHT22;10791;53.108;18.326;2023-06-24T06:45:23;21.30;99.90
21267;DHT22;10791;53.108;18.326;2023-06-24T06:50:26;21.20;99.90
21267;DHT22;10791;53.108;18.326;2023-06-24T06:55:30;21.00;99.90
21267;DHT22;10791;53.108;18.326;2023-06-24T07:00:33;21.10;99.90
21267;DHT22;10791;53.108;18.326;2023-06-24T07:05:36;21.10;99.90
21267;DHT22;10791;53.108;18.326;2023-06-24T07:10:41;21.10;99.90
21267;DHT22;10791;53.108;18.326;2023-06-24T07:15:44;21.10;99.90
21267;DHT22;10791;53.108;18.326;2023-06-24T07:20:48;21.10;99.90
21267;DHT22;10791;53.108;18.326;2023-06-24T07:25:51;21.10;99.90
21267;DHT22;10791;53.108;18.326;2023-06-24T07:30:55;21.20;99.90
21267;DHT22;10791;53.108;18.326;2023-06-24T07:35:58;21.30;99.90
21267;DHT22;10791;53.108;18.326;2023-06-24T07:41:02;21.30;99.90
21267;DHT22;10791;53.108;18.326;2023-06-24T07:46:05;21.30;99.90
21267;DHT22;10791;53.108;18.326;2023-06-24T07:51:09;21.60;99.90
21267;DHT22;10791;53.108;18.326;2023-06-24T07:56:13;22.00;99.90
21267;DHT22;10791;53.108;18.326;2023-06-24T08:01:17;22.20;99.90
21267;DHT22;10791;53.108;18.326;2023-06-24T08:06:21;22.30;99.90
21267;DHT22;10791;53.108;18.326;2023-06-24T08:11:26;22.40;99.90
21267;DHT22;10791;53.108;18.326;2023-06-24T08:16:30;22.60;99.90
21267;DHT22;10791;53.108;18.326;2023-06-24T08:21:34;22.90;99.90
21267;DHT22;10791;53.108;18.326;2023-06-24T08:26:37;23.20;99.90
21267;DHT22;10791;53.108;18.326;2023-06-24T08:31:40;23.30;99.90
21267;DHT22;10791;53.108;18.326;2023-06-24T08:36:44;23.50;99.90
21267;DHT22;10791;53.108;18.326;2023-06-24T08:41:47;23.50;99.90
21267;DHT22;10791;53.108;18.326;2023-06-24T08:46:50;23.50;99.90
21267;DHT22;10791;53.108;18.326;2023-06-24T08:52:02;23.50;98.40
21267;DHT22;10791;53.108;18.326;2023-06-24T08:57:06;23.40;97.80
21267;DHT22;10791;53.108;18.326;2023-06-24T09:02:11;23.50;96.80
21267;DHT22;10791;53.108;18.326;2023-06-24T09:07:26;23.50;98.10
21267;DHT22;10791;53.108;18.326;2023-06-24T09:12:34;23.60;94.60
21267;DHT22;10791;53.108;18.326;2023-06-24T09:17:44;23.80;96.70
21267;DHT22;10791;53.108;18.326;2023-06-24T09:22:50;23.80;92.40
21267;DHT22;10791;53.108;18.326;2023-06-24T09:27:53;24.00;92.60
21267;DHT22;10791;53.108;18.326;2023-06-24T09:32:58;24.10;93.80
21267;DHT22;10791;53.108;18.326;2023-06-24T09:38:02;24.20;91.50
21267;DHT22;10791;53.108;18.326;2023-06-24T09:43:05;24.40;90.80
21267;DHT22;10791;53.108;18.326;2023-06-24T09:48:09;24.60;93.90
21267;DHT22;10791;53.108;18.326;2023-06-24T09:53:12;25.00;90.90
21267;DHT22;10791;53.108;18.326;2023-06-24T09:58:17;25.10;87.50
21267;DHT22;10791;53.108;18.326;2023-06-24T10:03:21;25.10;89.20
21267;DHT22;10791;53.108;18.326;2023-06-24T10:08:25;25.20;86.90
21267;DHT22;10791;53.108;18.326;2023-06-24T10:13:28;25.20;83.50
21267;DHT22;10791;53.108;18.326;2023-06-24T10:18:36;25.20;88.20
21267;DHT22;10791;53.108;18.326;2023-06-24T10:23:52;25.40;90.00
21267;DHT22;10791;53.108;18.326;2023-06-24T10:44:48;25.70;85.20
21267;DHT22;10791;53.108;18.326;2023-06-24T10:49:51;25.70;84.80
21267;DHT22;10791;53.108;18.326;2023-06-24T10:54:56;25.90;84.40
21267;DHT22;10791;53.108;18.326;2023-06-24T11:00:01;26.00;86.40
21267;DHT22;10791;53.108;18.326;2023-06-24T11:05:05;26.20;83.90
21267;DHT22;10791;53.108;18.326;2023-06-24T11:10:14;26.30;83.20
21267;DHT22;10791;53.108;18.326;2023-06-24T11:15:18;26.40;86.50
21267;DHT22;10791;53.108;18.326;2023-06-24T11:20:22;26.80;83.70
21267;DHT22;10791;53.108;18.326;2023-06-24T11:25:25;27.10;83.10
21267;DHT22;10791;53.108;18.326;2023-06-24T11:30:34;27.10;77.60
21267;DHT22;10791;53.108;18.326;2023-06-24T11:35:38;27.20;78.20
21267;DHT22;10791;53.108;18.326;2023-06-24T11:40:42;27.30;76.30
21267;DHT22;10791;53.108;18.326;2023-06-24T11:45:48;27.50;78.50
21267;DHT22;10791;53.108;18.326;2023-06-24T11:50:54;27.60;76.00
21267;DHT22;10791;53.108;18.326;2023-06-24T11:55:58;27.90;75.70
21267;DHT22;10791;53.108;18.326;2023-06-24T12:01:01;28.30;75.90
21267;DHT22;10791;53.108;18.326;2023-06-24T12:06:05;28.30;70.60
21267;DHT22;10791;53.108;18.326;2023-06-24T12:11:08;28.20;69.90
21267;DHT22;10791;53.108;18.326;2023-06-24T12:16:11;28.20;66.70
21267;DHT22;10791;53.108;18.326;2023-06-24T12:21:15;27.90;68.00
21267;DHT22;10791;53.108;18.326;2023-06-24T12:26:19;27.70;66.30
21267;DHT22;10791;53.108;18.326;2023-06-24T12:31:23;27.50;66.60
21267;DHT22;10791;53.108;18.326;2023-06-24T12:36:27;27.90;67.00
21267;DHT22;10791;53.108;18.326;2023-06-24T12:41:30;27.90;67.30
21267;DHT22;10791;53.108;18.326;2023-06-24T12:46:34;27.90;67.10
21267;DHT22;10791;53.108;18.326;2023-06-24T12:51:37;27.70;68.80
21267;DHT22;10791;53.108;18.326;2023-06-24T12:56:40;27.50;71.20
21267;DHT22;10791;53.108;18.326;2023-06-24T13:01:44;27.60;69.50
21267;DHT22;10791;53.108;18.326;2023-06-24T13:06:48;27.80;67.50
21267;DHT22;10791;53.108;18.326;2023-06-24T13:11:55;28.00;66.40
21267;DHT22;10791;53.108;18.326;2023-06-24T13:16:58;28.20;65.80
21267;DHT22;10791;53.108;18.326;2023-06-24T13:22:01;28.50;63.90
21267;DHT22;10791;53.108;18.326;2023-06-24T13:27:05;28.60;65.00
21267;DHT22;10791;53.108;18.326;2023-06-24T13:32:09;28.70;67.70
21267;DHT22;10791;53.108;18.326;2023-06-24T13:37:12;28.90;64.70
21267;DHT22;10791;53.108;18.326;2023-06-24T13:42:18;29.00;64.40
21267;DHT22;10791;53.108;18.326;2023-06-24T13:47:21;29.30;65.60
21267;DHT22;10791;53.108;18.326;2023-06-24T13:52:26;29.20;65.20
21267;DHT22;10791;53.108;18.326;2023-06-24T13:57:29;29.00;65.20
21267;DHT22;10791;53.108;18.326;2023-06-24T14:02:33;28.90;65.30
21267;DHT22;10791;53.108;18.326;2023-06-24T14:07:37;28.90;62.20
21267;DHT22;10791;53.108;18.326;2023-06-24T14:12:41;28.70;62.50
21267;DHT22;10791;53.108;18.326;2023-06-24T14:17:45;28.80;61.50
21267;DHT22;10791;53.108;18.326;2023-06-24T14:22:48;28.90;64.00
21267;DHT22;10791;53.108;18.326;2023-06-24T14:27:52;29.10;63.00
21267;DHT22;10791;53.108;18.326;2023-06-24T14:32:55;29.00;63.30
21267;DHT22;10791;53.108;18.326;2023-06-24T14:37:58;28.70;64.40
21267;DHT22;10791;53.108;18.326;2023-06-24T14:43:02;28.30;64.40
21267;DHT22;10791;53.108;18.326;2023-06-24T14:48:06;27.90;66.60
21267;DHT22;10791;53.108;18.326;2023-06-24T14:53:09;27.50;67.70
21267;DHT22;10791;53.108;18.326;2023-06-24T14:58:12;27.30;69.20
21267;DHT22;10791;53.108;18.326;2023-06-24T15:03:16;27.60;70.40
21267;DHT22;10791;53.108;18.326;2023-06-24T15:08:20;28.40;65.70
21267;DHT22;10791;53.108;18.326;2023-06-24T15:13:23;29.00;62.90
21267;DHT22;10791;53.108;18.326;2023-06-24T15:18:26;29.60;61.60
21267;DHT22;10791;53.108;18.326;2023-06-24T15:23:30;30.60;59.60
21267;DHT22;10791;53.108;18.326;2023-06-24T15:28:34;31.00;57.60
21267;DHT22;10791;53.108;18.326;2023-06-24T15:33:37;31.00;56.70
21267;DHT22;10791;53.108;18.326;2023-06-24T15:38:40;31.10;57.80
21267;DHT22;10791;53.108;18.326;2023-06-24T15:43:44;31.70;56.80
21267;DHT22;10791;53.108;18.326;2023-06-24T15:48:47;31.90;55.70
21267;DHT22;10791;53.108;18.326;2023-06-24T15:53:50;31.70;55.80
21267;DHT22;10791;53.108;18.326;2023-06-24T15:58:54;31.20;55.70
21267;DHT22;10791;53.108;18.326;2023-06-24T16:03:57;30.90;56.20
21267;DHT22;10791;53.108;18.326;2023-06-24T16:09:01;30.40;56.80
21267;DHT22;10791;53.108;18.326;2023-06-24T16:14:05;30.00;57.50
21267;DHT22;10791;53.108;18.326;2023-06-24T16:19:08;30.20;56.50
21267;DHT22;10791;53.108;18.326;2023-06-24T16:24:12;30.50;54.70
21267;DHT22;10791;53.108;18.326;2023-06-24T16:29:15;30.00;55.80
21267;DHT22;10791;53.108;18.326;2023-06-24T16:34:20;29.50;58.20
21267;DHT22;10791;53.108;18.326;2023-06-24T16:39:27;29.60;58.90
21267;DHT22;10791;53.108;18.326;2023-06-24T16:44:30;29.30;56.70
21267;DHT22;10791;53.108;18.326;2023-06-24T16:49:36;28.60;59.20
21267;DHT22;10791;53.108;18.326;2023-06-24T16:54:39;28.40;59.90
21267;DHT22;10791;53.108;18.326;2023-06-24T16:59:44;28.40;60.40
21267;DHT22;10791;53.108;18.326;2023-06-24T17:04:47;28.30;59.60
21267;DHT22;10791;53.108;18.326;2023-06-24T17:09:51;27.80;60.80
21267;DHT22;10791;53.108;18.326;2023-06-24T17:14:54;27.40;61.60
21267;DHT22;10791;53.108;18.326;2023-06-24T17:19:57;27.20;61.30
21267;DHT22;10791;53.108;18.326;2023-06-24T17:25:01;27.00;62.40
21267;DHT22;10791;53.108;18.326;2023-06-24T17:30:06;27.10;61.70
21267;DHT22;10791;53.108;18.326;2023-06-24T17:35:09;27.00;62.70
21267;DHT22;10791;53.108;18.326;2023-06-24T17:40:13;26.80;63.20
21267;DHT22;10791;53.108;18.326;2023-06-24T17:45:17;26.70;65.30
21267;DHT22;10791;53.108;18.326;2023-06-24T17:50:21;26.70;66.00
21267;DHT22;10791;53.108;18.326;2023-06-24T17:55:26;27.00;66.10
21267;DHT22;10791;53.108;18.326;2023-06-24T18:00:32;27.00;64.60
21267;DHT22;10791;53.108;18.326;2023-06-24T18:05:40;27.20;66.00
21267;DHT22;10791;53.108;18.326;2023-06-24T18:10:43;27.20;67.00
21267;DHT22;10791;53.108;18.326;2023-06-24T18:15:47;27.10;66.00
21267;DHT22;10791;53.108;18.326;2023-06-24T18:20:51;26.90;67.30
21267;DHT22;10791;53.108;18.326;2023-06-24T18:25:54;26.40;67.80
21267;DHT22;10791;53.108;18.326;2023-06-24T18:30:57;26.00;69.80
21267;DHT22;10791;53.108;18.326;2023-06-24T18:36:01;25.60;70.50
21267;DHT22;10791;53.108;18.326;2023-06-24T18:41:04;25.20;71.70
21267;DHT22;10791;53.108;18.326;2023-06-24T18:46:07;24.80;73.20
21267;DHT22;10791;53.108;18.326;2023-06-24T18:51:11;24.60;75.10
21267;DHT22;10791;53.108;18.326;2023-06-24T18:56:14;24.30;75.40
21267;DHT22;10791;53.108;18.326;2023-06-24T19:01:19;24.00;76.30
21267;DHT22;10791;53.108;18.326;2023-06-24T19:06:22;23.70;77.30
21267;DHT22;10791;53.108;18.326;2023-06-24T19:11:26;23.50;78.10
21267;DHT22;10791;53.108;18.326;2023-06-24T19:16:30;23.30;79.40
21267;DHT22;10791;53.108;18.326;2023-06-24T19:21:33;23.10;79.60
21267;DHT22;10791;53.108;18.326;2023-06-24T19:26:37;22.90;81.20
21267;DHT22;10791;53.108;18.326;2023-06-24T19:31:40;22.70;80.80
21267;DHT22;10791;53.108;18.326;2023-06-24T19:36:44;22.50;81.40
21267;DHT22;10791;53.108;18.326;2023-06-24T19:41:48;22.40;81.80
21267;DHT22;10791;53.108;18.326;2023-06-24T19:46:52;22.20;81.50
21267;DHT22;10791;53.108;18.326;2023-06-24T19:51:55;22.00;80.90
21267;DHT22;10791;53.108;18.326;2023-06-24T19:56:59;21.90;80.80
21267;DHT22;10791;53.108;18.326;2023-06-24T20:02:02;21.70;80.80
21267;DHT22;10791;53.108;18.326;2023-06-24T20:07:06;21.60;79.90
21267;DHT22;10791;53.108;18.326;2023-06-24T20:12:11;21.40;80.00
21267;DHT22;10791;53.108;18.326;2023-06-24T20:17:15;21.30;79.40
21267;DHT22;10791;53.108;18.326;2023-06-24T20:22:18;21.30;79.40
21267;DHT22;10791;53.108;18.326;2023-06-24T20:27:21;21.10;79.00
21267;DHT22;10791;53.108;18.326;2023-06-24T20:32:25;21.00;78.90
21267;DHT22;10791;53.108;18.326;2023-06-24T20:37:28;20.90;78.80
21267;DHT22;10791;53.108;18.326;2023-06-24T20:42:36;20.80;79.80
21267;DHT22;10791;53.108;18.326;2023-06-24T20:47:39;20.80;80.20
21267;DHT22;10791;53.108;18.326;2023-06-24T20:52:43;20.70;80.00
21267;DHT22;10791;53.108;18.326;2023-06-24T20:57:47;20.70;79.90
21267;DHT22;10791;53.108;18.326;2023-06-24T21:02:50;20.70;80.20
21267;DHT22;10791;53.108;18.326;2023-06-24T21:07:54;20.60;79.80
21267;DHT22;10791;53.108;18.326;2023-06-24T21:12:59;20.60;77.50
21267;DHT22;10791;53.108;18.326;2023-06-24T21:18:04;20.50;76.90
21267;DHT22;10791;53.108;18.326;2023-06-24T21:23:08;20.40;76.30
21267;DHT22;10791;53.108;18.326;2023-06-24T21:28:15;20.30;76.90
21267;DHT22;10791;53.108;18.326;2023-06-24T21:33:21;20.10;77.20
21267;DHT22;10791;53.108;18.326;2023-06-24T21:38:25;19.90;77.50
21267;DHT22;10791;53.108;18.326;2023-06-24T21:43:28;19.80;78.20
21267;DHT22;10791;53.108;18.326;2023-06-24T21:48:31;19.60;79.80
21267;DHT22;10791;53.108;18.326;2023-06-24T21:53:36;19.40;81.30
21267;DHT22;10791;53.108;18.326;2023-06-24T21:58:40;19.30;81.90
21267;DHT22;10791;53.108;18.326;2023-06-24T22:03:43;19.10;83.30
21267;DHT22;10791;53.108;18.326;2023-06-24T22:08:47;19.00;84.80
21267;DHT22;10791;53.108;18.326;2023-06-24T22:13:50;18.90;86.10
21267;DHT22;10791;53.108;18.326;2023-06-24T22:18:53;18.70;87.80
21267;DHT22;10791;53.108;18.326;2023-06-24T22:23:57;18.60;90.00
21267;DHT22;10791;53.108;18.326;2023-06-24T22:29:00;18.40;90.80
21267;DHT22;10791;53.108;18.326;2023-06-24T22:34:04;18.30;91.90
21267;DHT22;10791;53.108;18.326;2023-06-24T22:39:07;18.10;92.80
21267;DHT22;10791;53.108;18.326;2023-06-24T22:44:11;18.00;93.20
21267;DHT22;10791;53.108;18.326;2023-06-24T22:49:14;17.90;94.70
21267;DHT22;10791;53.108;18.326;2023-06-24T22:54:17;17.80;95.60
21267;DHT22;10791;53.108;18.326;2023-06-24T22:59:20;17.60;96.60
21267;DHT22;10791;53.108;18.326;2023-06-24T23:04:24;17.50;97.40
21267;DHT22;10791;53.108;18.326;2023-06-24T23:09:28;17.40;98.90
21267;DHT22;10791;53.108;18.326;2023-06-24T23:14:32;17.20;99.90
21267;DHT22;10791;53.108;18.326;2023-06-24T23:19:36;17.10;99.90
21267;DHT22;10791;53.108;18.326;2023-06-24T23:24:41;16.90;99.90
21267;DHT22;10791;53.108;18.326;2023-06-24T23:29:52;16.70;99.90
21267;DHT22;10791;53.108;18.326;2023-06-24T23:35:00;16.60;99.90
21267;DHT22;10791;53.108;18.326;2023-06-24T23:40:04;16.50;99.90
21267;DHT22;10791;53.108;18.326;2023-06-24T23:45:08;16.30;99.90
21267;DHT22;10791;53.108;18.326;2023-06-24T23:50:11;16.20;99.90
21267;DHT22;10791;53.108;18.326;2023-06-24T23:55:15;16.10;99.90
